Time;durP1;ratioP1;P1;durP2;ratioP2;P2;SDS_P1;SDS_P2;PMS_P1;PMS_P2;Temp;Humidity;BMP_temperature;BMP_pressure;BME280_temperature;BME280_humidity;BME280_pressure;Samples;Min_cycle;Max_cycle;Signal;HPM_P1;HPM_P2
2022/10/03 00:03:35;;;;;;;19.13;4.13;;;;;;;9.53;100.00;96893.03;10411253;28;20590;-59
2022/10/03 00:08:54;;;;;;;15.10;3.70;;;;;;;9.49;100.00;96893.47;10410122;28;20327;-59
2022/10/03 00:14:00;;;;;;;19.80;3.23;;;;;;;9.50;100.00;96893.31;10410369;28;20283;-59
2022/10/03 00:19:11;;;;;;;20.73;4.00;;;;;;;9.52;100.00;96901.81;10411485;28;20683;-60
2022/10/03 00:24:29;;;;;;;17.50;3.70;;;;;;;9.44;100.00;96914.81;10410003;28;20752;-60
2022/10/03 00:29:42;;;;;;;18.87;4.53;;;;;;;9.44;100.00;96920.03;10409980;28;20224;-60
2022/10/03 00:35:14;;;;;;;18.03;4.07;;;;;;;9.43;100.00;96937.53;10408669;28;20256;-60
2022/10/03 00:40:47;;;;;;;13.33;4.00;;;;;;;9.42;100.00;96937.69;10409565;28;20248;-60
2022/10/03 00:46:15;;;;;;;17.77;3.70;;;;;;;9.33;100.00;96941.16;10386479;28;20256;-61
2022/10/03 00:51:38;;;;;;;14.90;3.37;;;;;;;9.33;100.00;96938.53;10409946;28;20668;-60
2022/10/03 00:56:43;;;;;;;17.00;3.93;;;;;;;9.18;100.00;96944.19;10405703;28;20228;-60
2022/10/03 01:01:45;;;;;;;12.23;3.57;;;;;;;9.28;100.00;96947.63;10406935;28;20282;-61
2022/10/03 01:06:57;;;;;;;16.33;3.30;;;;;;;9.27;100.00;96947.75;10408200;28;20236;-61
2022/10/03 01:12:33;;;;;;;12.47;3.63;;;;;;;9.20;100.00;96939.66;10407861;28;20247;-61
2022/10/03 01:17:46;;;;;;;13.97;3.10;;;;;;;9.26;100.00;96946.94;10386902;28;20224;-61
2022/10/03 01:23:22;;;;;;;25.20;3.53;;;;;;;9.19;100.00;96942.41;10403997;28;20223;-61
2022/10/03 01:34:20;;;;;;;15.53;3.40;;;;;;;9.33;100.00;96949.00;10407295;28;20583;-62
2022/10/03 01:39:25;;;;;;;13.33;3.37;;;;;;;9.35;100.00;96941.81;10406808;28;20240;-61
2022/10/03 01:44:53;;;;;;;22.33;4.80;;;;;;;9.26;100.00;96946.09;10408056;28;20212;-61
2022/10/03 01:50:07;;;;;;;21.90;4.30;;;;;;;9.15;100.00;96941.88;10407212;28;20227;-60
2022/10/03 01:55:17;;;;;;;15.80;3.50;;;;;;;9.18;100.00;96952.03;10406389;28;20219;-61
2022/10/03 02:00:22;;;;;;;9.23;2.87;;;;;;;9.22;100.00;96955.22;10406763;28;20595;-61
2022/10/03 02:05:47;;;;;;;16.10;3.23;;;;;;;9.20;100.00;96951.91;10405013;28;20698;-61
2022/10/03 02:10:54;;;;;;;15.53;4.23;;;;;;;9.05;100.00;96959.34;10414101;28;20565;-59
2022/10/03 02:16:01;;;;;;;15.80;3.67;;;;;;;9.11;100.00;96964.03;10413644;28;20579;-61
2022/10/03 02:21:31;;;;;;;22.73;4.50;;;;;;;9.15;100.00;96970.63;10415671;28;20301;-60
2022/10/03 02:26:57;;;;;;;20.20;3.53;;;;;;;9.19;100.00;96961.53;10412279;28;20231;-58
2022/10/03 02:32:42;;;;;;;18.03;3.60;;;;;;;9.20;100.00;96963.16;10415222;28;20185;-60
2022/10/03 02:38:04;;;;;;;16.43;3.30;;;;;;;9.12;100.00;96970.91;10415062;28;20208;-60
2022/10/03 02:43:23;;;;;;;18.93;3.77;;;;;;;9.09;100.00;96979.84;10413497;28;20212;-61
2022/10/03 02:48:48;;;;;;;16.73;4.00;;;;;;;9.06;100.00;96987.16;10413529;28;20577;-59
2022/10/03 02:54:25;;;;;;;18.30;5.10;;;;;;;9.02;100.00;96991.84;10413344;28;20220;-61
2022/10/03 03:00:04;;;;;;;17.87;4.73;;;;;;;8.99;100.00;96994.72;10411588;28;20321;-59
2022/10/03 03:05:18;;;;;;;21.30;4.87;;;;;;;9.04;100.00;96994.31;10412442;28;20229;-60
2022/10/03 03:10:37;;;;;;;15.40;4.17;;;;;;;9.05;100.00;96993.34;10414108;28;20227;-60
2022/10/03 03:16:16;;;;;;;24.47;5.03;;;;;;;9.08;100.00;97001.75;10412520;28;20216;-58
2022/10/03 03:21:40;;;;;;;14.37;4.00;;;;;;;9.04;100.00;97008.19;10411624;28;20213;-60
2022/10/03 03:27:00;;;;;;;17.70;4.53;;;;;;;8.91;100.00;97008.50;10411188;28;20228;-60
2022/10/03 03:32:03;;;;;;;17.00;4.83;;;;;;;8.95;100.00;97014.25;10412939;28;20195;-60
2022/10/03 03:37:31;;;;;;;16.17;4.60;;;;;;;8.98;100.00;97013.97;10411713;28;20225;-59
2022/10/03 03:43:07;;;;;;;18.20;4.17;;;;;;;8.93;100.00;97022.22;10409867;28;20227;-59
2022/10/03 03:48:37;;;;;;;13.80;3.97;;;;;;;8.95;100.00;97018.66;10375909;28;20193;-60
2022/10/03 03:54:18;;;;;;;15.67;4.10;;;;;;;8.84;100.00;97028.28;10412036;28;20295;-60
2022/10/03 03:59:38;;;;;;;19.63;5.03;;;;;;;8.82;100.00;97039.81;10394580;28;20233;-59
2022/10/03 04:04:48;;;;;;;16.27;4.80;;;;;;;8.78;100.00;97036.69;10410562;28;20319;-58
2022/10/03 04:10:16;;;;;;;15.60;4.43;;;;;;;8.82;100.00;97037.22;10408891;28;20989;-60
2022/10/03 04:15:29;;;;;;;16.60;3.90;;;;;;;8.83;100.00;97026.63;10411175;28;20208;-59
2022/10/03 04:20:30;;;;;;;14.73;3.90;;;;;;;8.86;100.00;97026.34;10409689;28;20216;-59
2022/10/03 04:25:56;;;;;;;14.73;4.50;;;;;;;8.86;100.00;97030.75;10409978;28;20741;-58
2022/10/03 04:31:16;;;;;;;14.20;4.23;;;;;;;8.93;100.00;97031.88;10377090;28;20232;-59
2022/10/03 04:36:19;;;;;;;14.10;4.30;;;;;;;8.99;100.00;97017.41;10408549;28;20392;-58
2022/10/03 04:41:37;;;;;;;13.93;3.73;;;;;;;8.95;100.00;97023.91;10409618;28;20319;-59
2022/10/03 04:46:45;;;;;;;15.73;4.60;;;;;;;8.92;100.00;97028.41;10408844;28;20271;-60
2022/10/03 04:51:48;;;;;;;19.33;4.57;;;;;;;8.95;100.00;97013.44;10408661;28;20192;-55
2022/10/03 04:57:30;;;;;;;21.47;4.60;;;;;;;8.86;100.00;97020.31;10407355;28;20275;-58
2022/10/03 05:02:52;;;;;;;15.90;5.23;;;;;;;8.91;100.00;97032.00;10387939;28;20247;-60
2022/10/03 05:08:05;;;;;;;16.43;5.20;;;;;;;8.88;100.00;97039.28;10407825;28;20612;-59
2022/10/03 05:13:11;;;;;;;15.60;5.90;;;;;;;8.66;100.00;97050.84;10408114;28;20188;-58
2022/10/03 05:18:22;;;;;;;16.70;6.23;;;;;;;8.69;100.00;97058.41;10407433;28;20254;-60
2022/10/03 05:23:41;;;;;;;12.17;5.83;;;;;;;8.70;100.00;97058.25;10407395;28;20216;-59
2022/10/03 05:28:53;;;;;;;17.80;6.33;;;;;;;8.62;100.00;97062.50;10406397;28;20200;-57
2022/10/03 05:34:11;;;;;;;20.77;6.20;;;;;;;8.58;100.00;97077.63;10407133;28;20592;-59
2022/10/03 05:39:57;;;;;;;19.47;6.27;;;;;;;8.58;100.00;97080.25;10408051;28;20211;-60
2022/10/03 05:45:22;;;;;;;13.63;5.87;;;;;;;8.58;100.00;97088.06;10406412;28;20299;-61
2022/10/03 05:50:53;;;;;;;23.37;6.70;;;;;;;8.58;100.00;97090.69;10408266;28;20188;-59
2022/10/03 05:56:06;;;;;;;18.80;6.77;;;;;;;8.55;100.00;97110.03;10406757;28;20562;-60
2022/10/03 06:01:24;;;;;;;16.50;5.23;;;;;;;8.59;100.00;97115.84;10367080;28;20711;-61
2022/10/03 06:06:56;;;;;;;18.90;6.03;;;;;;;8.65;100.00;97117.91;10385175;28;20232;-60
2022/10/03 06:12:26;;;;;;;15.47;4.90;;;;;;;8.63;100.00;97125.03;10406718;28;20183;-61
2022/10/03 06:17:45;;;;;;;16.03;4.87;;;;;;;8.65;100.00;97132.75;10407517;28;20578;-61
2022/10/03 06:23:04;;;;;;;13.07;5.37;;;;;;;8.73;100.00;97135.53;10405135;28;20224;-61
2022/10/03 06:28:37;;;;;;;15.40;5.37;;;;;;;8.70;100.00;97138.41;10405415;28;20255;-60
2022/10/03 06:33:54;;;;;;;18.77;4.67;;;;;;;8.85;100.00;97144.06;10407239;28;20201;-61
2022/10/03 06:39:16;;;;;;;12.27;4.40;;;;;;;8.96;100.00;97135.28;10407395;28;20683;-61
2022/10/03 06:44:28;;;;;;;22.13;4.83;;;;;;;9.03;100.00;97141.63;10405685;28;20303;-61
2022/10/03 06:50:05;;;;;;;16.57;4.60;;;;;;;9.09;100.00;97143.69;10405954;28;20189;-60
2022/10/03 06:55:09;;;;;;;14.20;4.80;;;;;;;9.17;100.00;97148.22;10382744;28;20213;-61
2022/10/03 07:00:12;;;;;;;13.53;5.03;;;;;;;9.22;100.00;97146.88;10413502;28;20224;-60
2022/10/03 07:05:35;;;;;;;17.17;4.87;;;;;;;9.21;100.00;97141.78;10411467;28;20323;-61
2022/10/03 07:10:57;;;;;;;15.53;5.43;;;;;;;9.16;100.00;97152.63;10412987;28;20203;-61
2022/10/03 07:16:17;;;;;;;21.77;5.27;;;;;;;9.28;100.00;97148.09;10406801;28;20231;-58
2022/10/03 07:21:30;;;;;;;15.47;4.93;;;;;;;9.55;100.00;97155.22;10412995;28;20719;-60
2022/10/03 07:26:39;;;;;;;16.10;5.40;;;;;;;9.41;100.00;97148.63;10411741;28;20305;-60
2022/10/03 07:32:30;;;;;;;17.60;4.20;;;;;;;9.47;100.00;97157.72;10413299;28;20211;-60
2022/10/03 07:43:50;;;;;;;9.98;3.78;;;;;;;9.80;100.00;97151.22;10409346;28;20275;-59
2022/10/03 07:49:11;;;;;;;13.75;4.38;;;;;;;9.70;100.00;97152.22;10409379;28;20192;-58
2022/10/03 07:54:36;;;;;;;10.03;3.10;;;;;;;9.71;100.00;97161.69;10409118;28;20282;-62
2022/10/03 08:00:04;;;;;;;9.53;3.67;;;;;;;9.37;100.00;97170.81;10412038;28;20228;-61
2022/10/03 08:05:33;;;;;;;9.77;3.73;;;;;;;9.31;100.00;97180.97;10411446;28;20726;-62
2022/10/03 08:11:07;;;;;;;14.40;4.23;;;;;;;9.52;100.00;97191.31;10411548;28;20184;-62
2022/10/03 08:16:23;;;;;;;8.57;3.20;;;;;;;9.50;100.00;97193.25;10408766;28;20217;-61
2022/10/03 08:21:35;;;;;;;7.53;3.43;;;;;;;9.59;100.00;97195.03;10408908;28;20217;-62
2022/10/03 08:26:44;;;;;;;10.70;3.77;;;;;;;10.02;100.00;97203.41;10410806;28;20209;-62
2022/10/03 08:31:56;;;;;;;6.15;3.60;;;;;;;10.21;100.00;97194.66;10410902;28;20201;-61
2022/10/03 08:37:11;;;;;;;10.70;3.22;;;;;;;10.15;100.00;97194.25;10409210;28;20299;-61
2022/10/03 08:42:25;;;;;;;10.02;3.55;;;;;;;10.14;100.00;97199.66;10408754;28;20232;-61
2022/10/03 08:47:42;;;;;;;10.05;3.70;;;;;;;10.28;100.00;97196.56;10407328;28;20307;-59
2022/10/03 08:53:16;;;;;;;12.37;3.20;;;;;;;10.47;100.00;97195.69;10408554;28;20231;-61
2022/10/03 08:58:45;;;;;;;7.72;2.63;;;;;;;10.80;100.00;97190.88;10408525;28;20187;-61
2022/10/03 09:04:19;;;;;;;10.18;2.85;;;;;;;10.90;100.00;97190.81;10409074;28;20577;-60
2022/10/03 09:09:38;;;;;;;11.77;3.30;;;;;;;11.04;100.00;97185.06;10407911;28;20283;-59
2022/10/03 09:14:50;;;;;;;14.68;3.20;;;;;;;11.18;100.00;97178.50;10408873;28;20765;-61
2022/10/03 09:20:18;;;;;;;9.25;2.83;;;;;;;10.79;100.00;97183.97;10408493;28;20217;-60
2022/10/03 09:25:24;;;;;;;8.80;3.65;;;;;;;10.33;100.00;97193.53;10408532;28;20223;-60
2022/10/03 09:30:46;;;;;;;16.67;3.47;;;;;;;10.29;100.00;97195.59;10407275;28;20192;-59
2022/10/03 09:36:37;;;;;;;9.88;3.80;;;;;;;11.53;100.00;97186.50;10408240;28;20306;-60
2022/10/03 09:42:15;;;;;;;5.78;1.75;;;;;;;13.25;100.00;97155.06;10382326;28;20239;-61
2022/10/03 09:47:36;;;;;;;6.97;2.20;;;;;;;13.24;100.00;97118.41;10407993;28;20217;-62
2022/10/03 09:53:04;;;;;;;10.93;2.38;;;;;;;13.24;100.00;97142.91;10406820;28;20189;-61
2022/10/03 09:58:31;;;;;;;9.02;2.10;;;;;;;11.82;100.00;97169.69;10407720;28;20224;-61
2022/10/03 10:04:19;;;;;;;11.25;2.17;;;;;;;10.69;100.00;97198.94;10405918;28;20596;-60
2022/10/03 10:09:32;;;;;;;11.38;3.08;;;;;;;10.45;100.00;97208.13;10353774;28;20326;-61
2022/10/03 10:14:54;;;;;;;12.23;4.03;;;;;;;11.99;100.00;97208.25;10406565;28;20231;-61
2022/10/03 10:20:03;;;;;;;11.32;3.15;;;;;;;13.40;100.00;97173.72;10407507;28;20208;-61
2022/10/03 10:25:23;;;;;;;7.80;2.08;;;;;;;12.93;100.00;97171.63;10406429;28;20213;-61
2022/10/03 10:30:50;;;;;;;9.32;2.50;;;;;;;14.06;100.00;97139.47;10412841;28;20208;-60
2022/10/03 10:36:09;;;;;;;10.25;2.30;;;;;;;14.75;89.36;97092.28;10414198;28;20270;-62
2022/10/03 10:41:37;;;;;;;10.88;2.28;;;;;;;15.94;88.46;97117.44;10414367;28;20319;-64
2022/10/03 10:47:22;;;;;;;9.80;1.85;;;;;;;15.63;82.55;97063.72;10413491;28;20558;-61
2022/10/03 10:52:41;;;;;;;11.77;2.30;;;;;;;14.15;87.54;97117.38;10413367;28;20258;-61
2022/10/03 10:58:17;;;;;;;8.98;2.17;;;;;;;13.10;88.89;97122.50;10413957;28;20539;-62
2022/10/03 11:03:36;;;;;;;7.38;1.90;;;;;;;12.37;93.39;97161.50;10413822;28;20219;-61
2022/10/03 11:09:01;;;;;;;5.85;1.85;;;;;;;12.40;99.28;97173.53;10413517;28;20193;-61
2022/10/03 11:14:19;;;;;;;13.02;2.10;;;;;;;13.09;95.27;97139.25;10413372;28;20219;-61
2022/10/03 11:19:50;;;;;;;9.98;1.92;;;;;;;14.12;91.25;97128.25;10413770;28;20231;-62
2022/10/03 11:25:35;;;;;;;9.30;1.83;;;;;;;14.26;86.28;97113.56;10407008;22;20237;-60
2022/10/03 11:30:53;;;;;;;6.85;2.35;;;;;;;13.97;83.53;97088.59;10372548;28;20255;-62
2022/10/03 11:36:09;;;;;;;11.43;2.00;;;;;;;13.58;88.35;97139.31;10372175;28;20307;-63
2022/10/03 11:41:23;;;;;;;8.85;2.15;;;;;;;13.56;89.16;97133.41;10369824;28;20361;-63
2022/10/03 11:47:01;;;;;;;16.17;2.25;;;;;;;13.47;87.10;97122.06;10370785;28;20216;-61
2022/10/03 11:52:07;;;;;;;10.10;1.98;;;;;;;13.65;87.12;97137.69;10371236;28;20205;-61
2022/10/03 11:57:14;;;;;;;13.02;2.20;;;;;;;14.31;87.58;97142.03;10371209;28;20536;-61
2022/10/03 12:02:34;;;;;;;8.32;1.95;;;;;;;14.18;87.87;97138.13;10369711;28;20229;-61
2022/10/03 12:13:11;;;;;;;7.40;1.70;;;;;;;13.03;89.61;97159.13;10369185;28;20272;-62
2022/10/03 12:18:20;;;;;;;12.02;2.30;;;;;;;13.09;90.40;97166.38;10370818;28;20660;-63
2022/10/03 12:23:58;;;;;;;6.13;1.90;;;;;;;13.32;88.72;97148.19;10368700;28;20364;-63
2022/10/03 12:28:59;;;;;;;8.32;1.58;;;;;;;13.14;89.06;97144.84;10370354;28;20204;-62
2022/10/03 12:34:23;;;;;;;10.57;1.92;;;;;;;13.23;89.20;97164.09;10369721;28;20205;-63
2022/10/03 12:40:00;;;;;;;8.60;1.70;;;;;;;13.05;93.85;97188.75;10368079;28;20767;-61
2022/10/03 12:45:26;;;;;;;7.75;2.03;;;;;;;13.58;90.58;97160.38;10369610;28;20216;-62
2022/10/03 12:50:44;;;;;;;9.60;1.90;;;;;;;13.60;87.67;97147.06;10362555;28;20201;-61
2022/10/03 12:56:25;;;;;;;10.57;1.58;;;;;;;13.52;89.51;97172.41;10368823;28;20791;-62
2022/10/03 13:01:33;;;;;;;11.18;2.53;;;;;;;13.59;89.55;97175.19;10347923;28;20372;-64
2022/10/03 13:06:45;;;;;;;7.45;1.50;;;;;;;13.56;90.93;97176.34;10367451;28;20668;-61
2022/10/03 13:11:55;;;;;;;11.73;2.42;;;;;;;13.10;90.63;97170.66;10367486;28;20232;-60
2022/10/03 13:17:06;;;;;;;7.40;2.05;;;;;;;13.01;91.60;97177.69;10368497;28;20205;-63
2022/10/03 13:22:32;;;;;;;7.30;1.60;;;;;;;12.96;91.27;97163.41;10367095;28;20328;-64
2022/10/03 13:27:35;;;;;;;8.82;2.05;;;;;;;13.05;90.69;97158.97;10368119;28;20204;-63
2022/10/03 13:32:38;;;;;;;10.57;2.22;;;;;;;12.88;91.68;97171.25;10368002;28;20284;-62
2022/10/03 13:38:20;;;;;;;10.55;1.75;;;;;;;12.98;90.94;97158.81;10366572;28;20185;-60
2022/10/03 13:43:26;;;;;;;10.98;2.30;;;;;;;13.15;93.42;97168.34;10366607;28;20311;-60
2022/10/03 13:48:27;;;;;;;14.18;2.58;;;;;;;13.64;91.76;97166.81;10366329;28;20331;-64
2022/10/03 13:53:49;;;;;;;9.15;2.40;;;;;;;13.71;89.69;97147.56;10367137;28;20654;-64
2022/10/03 13:59:01;;;;;;;7.13;1.52;;;;;;;13.76;89.02;97143.63;10367448;28;20197;-64
2022/10/03 14:04:13;;;;;;;7.05;1.70;;;;;;;14.21;85.40;97106.16;10374134;28;20267;-63
2022/10/03 14:09:42;;;;;;;6.82;1.98;;;;;;;13.98;86.78;97127.13;10380631;28;20267;-63
2022/10/03 14:14:49;;;;;;;10.63;2.00;;;;;;;13.41;88.25;97140.31;10380679;28;20223;-64
2022/10/03 14:20:16;;;;;;;10.18;1.83;;;;;;;13.14;90.81;97161.47;10379162;28;20311;-63
2022/10/03 14:25:22;;;;;;;9.23;1.85;;;;;;;13.19;90.98;97147.84;10379204;28;20243;-61
2022/10/03 14:30:25;;;;;;;4.25;1.38;;;;;;;12.75;90.09;97153.31;10379029;28;20664;-64
2022/10/03 14:35:36;;;;;;;7.13;1.50;;;;;;;12.93;93.77;97169.00;10379088;28;20201;-64
2022/10/03 14:41:09;;;;;;;6.20;1.30;;;;;;;12.81;92.29;97163.19;10378651;28;20695;-64
2022/10/03 14:46:10;;;;;;;11.52;1.88;;;;;;;12.52;93.92;97166.19;10339590;28;20338;-64
2022/10/03 14:51:19;;;;;;;3.95;1.35;;;;;;;14.08;88.04;97127.75;10342463;28;20721;-64
2022/10/03 14:56:19;;;;;;;8.27;2.25;;;;;;;14.25;83.26;97096.91;10400213;28;20221;-63
2022/10/03 15:01:23;;;;;;;6.57;1.75;;;;;;;13.66;85.86;97128.81;10392599;28;20308;-63
2022/10/03 15:06:47;;;;;;;8.57;1.65;;;;;;;13.18;87.66;97144.38;10380843;28;20326;-64
2022/10/03 15:11:53;;;;;;;6.55;1.80;;;;;;;12.91;89.22;97155.16;10378556;28;20866;-64
2022/10/03 15:16:55;;;;;;;16.23;1.70;;;;;;;12.53;92.47;97173.94;10371796;28;20586;-64
2022/10/03 15:22:13;;;;;;;4.53;1.63;;;;;;;12.39;93.42;97171.88;10372411;28;20804;-64
2022/10/03 15:27:20;;;;;;;9.20;2.00;;;;;;;12.28;96.86;97191.34;10371228;28;20794;-65
2022/10/03 15:32:38;;;;;;;8.05;1.83;;;;;;;12.22;97.04;97186.72;10369869;28;20267;-65
2022/10/03 15:37:40;;;;;;;8.98;1.88;;;;;;;12.31;97.36;97181.38;10372310;28;20192;-64
2022/10/03 15:42:50;;;;;;;6.35;1.83;;;;;;;12.34;97.75;97172.34;10370619;28;20652;-64
2022/10/03 15:47:50;;;;;;;7.00;1.60;;;;;;;12.27;99.31;97189.72;10371890;28;20308;-64
2022/10/03 15:52:57;;;;;;;8.32;1.95;;;;;;;12.04;100.00;97186.78;10370852;28;20659;-64
2022/10/03 15:58:10;;;;;;;16.92;5.70;;;;;;;11.78;100.00;97177.88;10369520;28;20190;-64
2022/10/03 16:03:15;;;;;;;9.57;2.13;;;;;;;11.52;100.00;97177.00;10368911;28;20221;-64
2022/10/03 16:08:19;;;;;;;6.38;2.15;;;;;;;11.11;100.00;97182.69;10369941;28;20220;-63
2022/10/03 16:13:42;;;;;;;11.18;2.72;;;;;;;11.17;100.00;97186.50;10369433;28;20303;-64
2022/10/03 16:19:20;;;;;;;10.55;2.70;;;;;;;11.17;100.00;97174.22;10369418;28;20205;-64
2022/10/03 16:24:46;;;;;;;11.30;3.05;;;;;;;11.05;100.00;97180.66;10369619;28;20372;-64
2022/10/03 16:30:01;;;;;;;9.77;2.63;;;;;;;10.95;100.00;97182.50;10369934;28;20194;-64
2022/10/03 16:35:05;;;;;;;19.20;5.03;;;;;;;10.94;100.00;97189.53;10368223;28;20692;-63
2022/10/03 16:40:07;;;;;;;9.25;2.80;;;;;;;10.98;100.00;97196.16;10367909;28;20727;-64
2022/10/03 16:45:39;;;;;;;11.02;3.00;;;;;;;11.01;100.00;97182.75;10367706;28;20572;-63
2022/10/03 16:50:46;;;;;;;8.50;3.10;;;;;;;10.91;100.00;97187.22;10365638;28;20580;-62
2022/10/03 16:55:58;;;;;;;5.07;1.85;;;;;;;10.96;100.00;97199.88;10366965;28;20284;-64
2022/10/03 17:01:15;;;;;;;56.88;38.25;;;;;;;11.04;100.00;97202.59;10365254;28;20218;-64
2022/10/03 17:06:21;;;;;;;5.03;2.05;;;;;;;10.96;100.00;97202.50;10333747;28;20327;-62
2022/10/03 17:11:25;;;;;;;6.05;2.30;;;;;;;11.07;100.00;97205.75;10347456;28;20201;-62
2022/10/03 17:16:38;;;;;;;9.23;3.08;;;;;;;10.95;100.00;97209.56;10366718;28;20193;-65
2022/10/03 17:21:42;;;;;;;11.32;4.63;;;;;;;10.96;100.00;97205.13;10358855;28;20726;-64
2022/10/03 17:26:51;;;;;;;25.23;10.63;;;;;;;10.85;100.00;97198.28;10362025;28;20279;-65
2022/10/03 17:32:12;;;;;;;13.57;2.75;;;;;;;10.70;100.00;97206.66;10366112;28;20344;-65
2022/10/03 17:37:43;;;;;;;15.25;3.45;;;;;;;10.64;100.00;97206.38;10354230;28;20281;-63
2022/10/03 17:42:50;;;;;;;27.50;7.10;;;;;;;10.71;100.00;97213.53;10341072;28;20337;-65
2022/10/03 17:48:19;;;;;;;12.50;2.58;;;;;;;10.57;100.00;97211.38;10342753;28;20206;-65
2022/10/03 17:53:32;;;;;;;11.25;2.15;;;;;;;10.76;100.00;97207.84;10325339;28;20226;-65
2022/10/03 17:58:34;;;;;;;9.43;2.28;;;;;;;10.78;100.00;97208.53;10363479;28;20307;-66
2022/10/03 18:03:40;;;;;;;11.73;2.35;;;;;;;10.86;100.00;97211.25;10367271;28;20213;-61
2022/10/03 18:08:40;;;;;;;11.35;2.88;;;;;;;10.85;100.00;97219.25;10362561;28;20198;-65
2022/10/03 18:13:46;;;;;;;9.10;2.47;;;;;;;10.93;100.00;97208.03;10364957;28;20579;-65
2022/10/03 18:19:07;;;;;;;11.32;3.88;;;;;;;10.94;100.00;97207.09;10361798;28;20272;-64
2022/10/03 18:24:35;;;;;;;16.42;8.80;;;;;;;10.85;100.00;97214.00;10335248;28;20237;-65
2022/10/03 18:29:51;;;;;;;38.17;24.83;;;;;;;10.99;100.00;97210.06;10361454;28;20284;-65
2022/10/03 18:35:03;;;;;;;8.98;2.38;;;;;;;10.81;100.00;97218.72;10363586;28;20217;-65
2022/10/03 18:40:12;;;;;;;11.45;2.40;;;;;;;10.78;100.00;97223.41;10361803;28;20278;-66
2022/10/03 18:45:29;;;;;;;6.63;2.20;;;;;;;10.60;100.00;97241.72;10364602;28;20217;-65
2022/10/03 18:50:39;;;;;;;6.93;2.30;;;;;;;10.24;100.00;97237.09;10365042;28;20201;-65
2022/10/03 18:55:43;;;;;;;5.88;1.80;;;;;;;10.16;100.00;97239.59;10369627;28;20704;-64
2022/10/03 19:00:56;;;;;;;4.97;1.80;;;;;;;10.18;100.00;97251.59;10368001;28;20640;-67
2022/10/03 19:06:03;;;;;;;3.67;2.22;;;;;;;10.04;100.00;97249.38;10371384;28;20263;-66
2022/10/03 19:11:23;;;;;;;5.57;2.10;;;;;;;9.98;100.00;97247.31;10359522;28;20193;-66
2022/10/03 19:16:57;;;;;;;4.27;1.67;;;;;;;9.90;100.00;97242.78;10354761;28;20291;-65
2022/10/03 19:22:04;;;;;;;2.63;1.70;;;;;;;9.93;100.00;97239.88;10354675;28;20226;-65
2022/10/03 19:27:10;;;;;;;4.07;1.50;;;;;;;9.89;100.00;97241.16;10443358;22;20718;-63
2022/10/03 19:32:39;;;;;;;5.53;1.43;;;;;;;9.93;100.00;97242.50;10448498;28;20195;-62
2022/10/03 19:37:46;;;;;;;3.63;1.30;;;;;;;9.86;100.00;97241.41;10410720;28;20228;-63
2022/10/03 19:42:49;;;;;;;3.80;1.45;;;;;;;9.90;100.00;97239.34;10409810;28;20228;-61
2022/10/03 19:47:56;;;;;;;3.87;1.27;;;;;;;9.88;100.00;97241.28;10411126;28;20213;-63
2022/10/03 19:52:57;;;;;;;3.60;1.60;;;;;;;9.78;100.00;97241.28;10409481;28;20188;-63
2022/10/03 19:58:04;;;;;;;4.30;1.83;;;;;;;9.91;100.00;97246.25;10404363;28;20196;-63
2022/10/03 20:03:20;;;;;;;5.57;2.90;;;;;;;9.95;100.00;97244.97;10406883;28;20981;-61
2022/10/03 20:08:21;;;;;;;7.18;3.85;;;;;;;9.98;100.00;97244.72;10408920;28;20287;-63
2022/10/03 20:13:22;;;;;;;10.57;4.17;;;;;;;10.18;100.00;97240.25;10409193;28;20211;-63
2022/10/03 20:18:25;;;;;;;6.10;4.07;;;;;;;10.09;100.00;97247.19;10409800;28;20203;-63
2022/10/03 20:23:27;;;;;;;11.90;3.80;;;;;;;10.18;100.00;97237.66;10398778;28;20240;-61
2022/10/03 20:28:52;;;;;;;9.98;4.45;;;;;;;9.99;100.00;97228.84;10387533;28;20930;-61
2022/10/03 20:33:53;;;;;;;10.60;3.83;;;;;;;10.02;100.00;97234.81;10390072;28;20216;-60
2022/10/03 20:39:15;;;;;;;13.07;4.07;;;;;;;9.96;100.00;97247.47;10410074;28;20195;-63
2022/10/03 20:45:02;;;;;;;10.60;3.53;;;;;;;10.08;100.00;97236.84;10389095;28;20624;-63
2022/10/03 20:50:35;;;;;;;8.43;3.43;;;;;;;10.04;100.00;97243.34;10392182;28;20230;-62
2022/10/03 20:55:46;;;;;;;9.15;3.10;;;;;;;10.13;100.00;97234.63;10407576;28;20715;-61
2022/10/03 21:00:58;;;;;;;11.63;3.33;;;;;;;10.14;100.00;97233.69;10408912;28;20216;-63
2022/10/03 21:05:59;;;;;;;7.28;2.72;;;;;;;10.08;100.00;97234.25;10408629;28;20224;-61
2022/10/03 21:11:01;;;;;;;9.43;3.20;;;;;;;10.20;100.00;97229.66;10408314;28;20984;-62
2022/10/03 21:16:16;;;;;;;9.68;3.67;;;;;;;10.09;100.00;97228.03;10406978;28;20228;-63
2022/10/03 21:21:36;;;;;;;9.45;3.97;;;;;;;10.15;100.00;97223.06;10407197;28;20227;-63
2022/10/03 21:26:45;;;;;;;9.38;3.88;;;;;;;10.09;100.00;97213.16;10406819;28;20689;-63
2022/10/03 21:32:00;;;;;;;11.57;3.70;;;;;;;10.10;100.00;97220.03;10375501;28;20559;-62
2022/10/03 21:37:12;;;;;;;11.55;3.67;;;;;;;10.20;100.00;97217.41;10393828;28;20212;-62
2022/10/03 21:42:21;;;;;;;7.45;2.65;;;;;;;10.21;100.00;97216.41;10402705;28;20247;-63
2022/10/03 21:47:30;;;;;;;8.00;2.63;;;;;;;10.20;100.00;97208.69;10406335;28;20224;-63
2022/10/03 21:52:55;;;;;;;12.13;2.83;;;;;;;10.20;100.00;97213.94;10405854;28;20207;-63
2022/10/03 21:58:05;;;;;;;7.43;2.53;;;;;;;10.19;100.00;97202.66;10389662;28;20634;-61
2022/10/03 22:03:13;;;;;;;9.70;2.57;;;;;;;10.20;100.00;97212.16;10390979;28;20300;-59
2022/10/03 22:08:24;;;;;;;9.80;2.37;;;;;;;10.05;100.00;97210.97;10373452;28;20668;-61
2022/10/03 22:13:27;;;;;;;7.50;2.80;;;;;;;10.12;100.00;97215.50;10421812;28;20221;-62
2022/10/03 22:18:34;;;;;;;9.23;3.00;;;;;;;10.21;100.00;97208.56;10389466;28;20373;-62
2022/10/03 22:23:47;;;;;;;10.80;2.85;;;;;;;10.28;100.00;97207.03;10390727;28;20232;-62
2022/10/03 22:28:58;;;;;;;12.10;3.00;;;;;;;10.26;100.00;97190.66;10412739;28;20204;-60
2022/10/03 22:34:08;;;;;;;8.60;2.95;;;;;;;10.17;100.00;97194.94;10412217;28;20209;-63
2022/10/03 22:39:14;;;;;;;6.47;2.70;;;;;;;10.09;100.00;97194.84;10413356;28;20204;-60
2022/10/03 22:44:17;;;;;;;11.48;3.20;;;;;;;10.15;100.00;97188.19;10394817;28;20227;-62
2022/10/03 22:49:41;;;;;;;7.00;2.80;;;;;;;10.21;100.00;97186.81;10400732;28;20204;-59
2022/10/03 22:54:42;;;;;;;8.53;3.00;;;;;;;10.15;100.00;97188.19;10411257;28;20224;-61
2022/10/03 23:00:13;;;;;;;8.48;3.00;;;;;;;10.08;100.00;97187.13;10411248;28;20188;-61
2022/10/03 23:05:34;;;;;;;8.43;3.45;;;;;;;10.23;100.00;97183.09;10397193;28;20294;-63
2022/10/03 23:10:49;;;;;;;5.18;3.03;;;;;;;10.20;100.00;97188.59;10388169;28;20193;-61
2022/10/03 23:15:54;;;;;;;9.17;3.50;;;;;;;10.17;100.00;97196.75;10386682;28;20219;-63
2022/10/03 23:21:08;;;;;;;7.63;3.37;;;;;;;10.13;100.00;97188.31;10406401;28;20224;-61
2022/10/03 23:26:43;;;;;;;9.97;3.03;;;;;;;10.12;100.00;97189.31;10377121;28;20244;-62
2022/10/03 23:31:48;;;;;;;8.15;3.42;;;;;;;10.19;100.00;97192.19;10387337;28;20200;-60
2022/10/03 23:37:14;;;;;;;9.98;3.13;;;;;;;10.11;100.00;97197.31;10410121;28;20217;-63
2022/10/03 23:42:19;;;;;;;7.20;3.30;;;;;;;10.22;100.00;97191.09;10378281;28;20286;-63
2022/10/03 23:47:25;;;;;;;12.03;3.50;;;;;;;10.05;100.00;97190.84;10380862;28;20217;-62
2022/10/03 23:52:38;;;;;;;17.63;4.10;;;;;;;9.99;100.00;97186.16;10401973;28;20217;-62
2022/10/03 23:57:40;;;;;;;12.07;3.30;;;;;;;9.97;100.00;97191.53;10402998;28;20209;-61
